sensor_id;sensor_type;location;lat;lon;timestamp;P1;durP1;ratioP1;P2;durP2;ratioP2
53903;SDS011;39812;52.430;16.936;2023-10-31T00:02:15;24.55;;;11.13;;
53903;SDS011;39812;52.430;16.936;2023-10-31T00:04:41;23.23;;;11.48;;
53903;SDS011;39812;52.430;16.936;2023-10-31T00:07:07;19.67;;;10.68;;
53903;SDS011;39812;52.430;16.936;2023-10-31T00:09:33;20.77;;;11.00;;
53903;SDS011;39812;52.430;16.936;2023-10-31T00:11:59;25.00;;;10.60;;
53903;SDS011;39812;52.430;16.936;2023-10-31T00:14:24;17.08;;;10.02;;
53903;SDS011;39812;52.430;16.936;2023-10-31T00:16:50;19.33;;;11.40;;
53903;SDS011;39812;52.430;16.936;2023-10-31T00:19:16;20.75;;;11.15;;
53903;SDS011;39812;52.430;16.936;2023-10-31T00:21:42;21.83;;;10.38;;
53903;SDS011;39812;52.430;16.936;2023-10-31T00:24:07;21.42;;;10.18;;
53903;SDS011;39812;52.430;16.936;2023-10-31T00:26:33;18.58;;;10.15;;
53903;SDS011;39812;52.430;16.936;2023-10-31T00:28:59;18.88;;;10.20;;
53903;SDS011;39812;52.430;16.936;2023-10-31T00:31:25;23.40;;;9.93;;
53903;SDS011;39812;52.430;16.936;2023-10-31T00:33:51;19.35;;;10.00;;
53903;SDS011;39812;52.430;16.936;2023-10-31T00:36:16;18.92;;;10.10;;
53903;SDS011;39812;52.430;16.936;2023-10-31T00:38:42;19.90;;;10.40;;
53903;SDS011;39812;52.430;16.936;2023-10-31T00:41:08;20.17;;;10.18;;
53903;SDS011;39812;52.430;16.936;2023-10-31T00:43:33;23.15;;;10.20;;
53903;SDS011;39812;52.430;16.936;2023-10-31T00:46:02;17.15;;;9.77;;
53903;SDS011;39812;52.430;16.936;2023-10-31T00:48:28;16.83;;;9.60;;
53903;SDS011;39812;52.430;16.936;2023-10-31T00:50:54;16.88;;;9.82;;
53903;SDS011;39812;52.430;16.936;2023-10-31T00:53:19;20.13;;;9.07;;
53903;SDS011;39812;52.430;16.936;2023-10-31T00:55:45;18.25;;;9.98;;
53903;SDS011;39812;52.430;16.936;2023-10-31T00:58:11;16.05;;;9.77;;
53903;SDS011;39812;52.430;16.936;2023-10-31T01:00:37;18.58;;;9.30;;
53903;SDS011;39812;52.430;16.936;2023-10-31T01:03:03;16.92;;;9.23;;
53903;SDS011;39812;52.430;16.936;2023-10-31T01:05:29;17.02;;;9.25;;
53903;SDS011;39812;52.430;16.936;2023-10-31T01:07:55;20.00;;;10.60;;
53903;SDS011;39812;52.430;16.936;2023-10-31T01:10:20;15.23;;;8.70;;
53903;SDS011;39812;52.430;16.936;2023-10-31T01:12:46;19.27;;;9.68;;
53903;SDS011;39812;52.430;16.936;2023-10-31T01:15:11;15.05;;;8.05;;
53903;SDS011;39812;52.430;16.936;2023-10-31T01:17:37;16.73;;;9.18;;
53903;SDS011;39812;52.430;16.936;2023-10-31T01:20:03;17.33;;;8.45;;
53903;SDS011;39812;52.430;16.936;2023-10-31T01:22:29;14.45;;;8.50;;
53903;SDS011;39812;52.430;16.936;2023-10-31T01:24:55;15.25;;;8.60;;
53903;SDS011;39812;52.430;16.936;2023-10-31T01:27:21;19.52;;;9.07;;
53903;SDS011;39812;52.430;16.936;2023-10-31T01:29:46;13.38;;;8.15;;
53903;SDS011;39812;52.430;16.936;2023-10-31T01:32:12;17.48;;;8.15;;
53903;SDS011;39812;52.430;16.936;2023-10-31T01:34:38;13.65;;;8.02;;
53903;SDS011;39812;52.430;16.936;2023-10-31T01:37:04;14.75;;;8.20;;
53903;SDS011;39812;52.430;16.936;2023-10-31T01:39:29;13.38;;;7.47;;
53903;SDS011;39812;52.430;16.936;2023-10-31T01:41:55;15.13;;;8.30;;
53903;SDS011;39812;52.430;16.936;2023-10-31T01:44:20;17.35;;;8.82;;
53903;SDS011;39812;52.430;16.936;2023-10-31T01:46:46;16.05;;;7.70;;
53903;SDS011;39812;52.430;16.936;2023-10-31T01:49:13;15.38;;;7.93;;
53903;SDS011;39812;52.430;16.936;2023-10-31T01:51:40;14.80;;;8.13;;
53903;SDS011;39812;52.430;16.936;2023-10-31T01:54:06;15.00;;;8.20;;
53903;SDS011;39812;52.430;16.936;2023-10-31T01:56:32;15.02;;;7.55;;
53903;SDS011;39812;52.430;16.936;2023-10-31T01:58:58;14.85;;;7.75;;
53903;SDS011;39812;52.430;16.936;2023-10-31T02:01:23;17.90;;;7.38;;
53903;SDS011;39812;52.430;16.936;2023-10-31T02:03:49;16.15;;;8.40;;
53903;SDS011;39812;52.430;16.936;2023-10-31T02:06:15;14.73;;;8.45;;
53903;SDS011;39812;52.430;16.936;2023-10-31T02:08:41;16.70;;;7.65;;
53903;SDS011;39812;52.430;16.936;2023-10-31T02:11:07;15.98;;;8.23;;
53903;SDS011;39812;52.430;16.936;2023-10-31T02:13:35;15.50;;;7.82;;
53903;SDS011;39812;52.430;16.936;2023-10-31T02:16:01;16.73;;;8.02;;
53903;SDS011;39812;52.430;16.936;2023-10-31T02:18:27;14.63;;;7.78;;
53903;SDS011;39812;52.430;16.936;2023-10-31T02:20:53;14.65;;;7.72;;
53903;SDS011;39812;52.430;16.936;2023-10-31T02:23:18;13.85;;;7.72;;
53903;SDS011;39812;52.430;16.936;2023-10-31T02:25:44;17.15;;;8.00;;
53903;SDS011;39812;52.430;16.936;2023-10-31T02:28:09;12.48;;;7.75;;
53903;SDS011;39812;52.430;16.936;2023-10-31T02:30:35;14.60;;;7.55;;
53903;SDS011;39812;52.430;16.936;2023-10-31T02:33:02;10.15;;;6.70;;
53903;SDS011;39812;52.430;16.936;2023-10-31T02:35:27;12.63;;;7.40;;
53903;SDS011;39812;52.430;16.936;2023-10-31T02:37:53;14.65;;;7.28;;
53903;SDS011;39812;52.430;16.936;2023-10-31T02:40:19;13.90;;;6.95;;
53903;SDS011;39812;52.430;16.936;2023-10-31T02:42:45;13.52;;;7.40;;
53903;SDS011;39812;52.430;16.936;2023-10-31T02:45:11;15.63;;;7.60;;
53903;SDS011;39812;52.430;16.936;2023-10-31T02:47:37;13.60;;;7.90;;
53903;SDS011;39812;52.430;16.936;2023-10-31T02:50:02;12.70;;;7.43;;
53903;SDS011;39812;52.430;16.936;2023-10-31T02:52:28;14.05;;;7.80;;
53903;SDS011;39812;52.430;16.936;2023-10-31T02:54:54;10.57;;;6.47;;
53903;SDS011;39812;52.430;16.936;2023-10-31T02:57:19;19.67;;;8.48;;
53903;SDS011;39812;52.430;16.936;2023-10-31T02:59:45;11.68;;;6.93;;
53903;SDS011;39812;52.430;16.936;2023-10-31T03:02:11;14.68;;;7.90;;
53903;SDS011;39812;52.430;16.936;2023-10-31T03:04:37;10.85;;;7.05;;
53903;SDS011;39812;52.430;16.936;2023-10-31T03:07:02;14.00;;;7.43;;
53903;SDS011;39812;52.430;16.936;2023-10-31T03:09:28;13.70;;;7.28;;
53903;SDS011;39812;52.430;16.936;2023-10-31T03:11:54;16.00;;;7.43;;
53903;SDS011;39812;52.430;16.936;2023-10-31T03:14:19;15.90;;;6.95;;
53903;SDS011;39812;52.430;16.936;2023-10-31T03:16:45;17.80;;;7.35;;
53903;SDS011;39812;52.430;16.936;2023-10-31T03:19:11;13.65;;;7.82;;
53903;SDS011;39812;52.430;16.936;2023-10-31T03:21:36;14.80;;;7.25;;
53903;SDS011;39812;52.430;16.936;2023-10-31T03:24:03;12.48;;;7.40;;
53903;SDS011;39812;52.430;16.936;2023-10-31T03:26:29;18.45;;;7.82;;
53903;SDS011;39812;52.430;16.936;2023-10-31T03:28:54;13.02;;;7.15;;
53903;SDS011;39812;52.430;16.936;2023-10-31T03:31:22;11.77;;;6.88;;
53903;SDS011;39812;52.430;16.936;2023-10-31T03:33:48;11.18;;;6.97;;
53903;SDS011;39812;52.430;16.936;2023-10-31T03:36:14;11.10;;;7.03;;
53903;SDS011;39812;52.430;16.936;2023-10-31T03:38:40;17.10;;;7.35;;
53903;SDS011;39812;52.430;16.936;2023-10-31T03:41:06;13.38;;;6.45;;
53903;SDS011;39812;52.430;16.936;2023-10-31T03:43:32;14.63;;;7.00;;
53903;SDS011;39812;52.430;16.936;2023-10-31T03:45:58;14.13;;;7.03;;
53903;SDS011;39812;52.430;16.936;2023-10-31T03:48:24;16.80;;;7.28;;
53903;SDS011;39812;52.430;16.936;2023-10-31T03:50:49;11.52;;;6.72;;
53903;SDS011;39812;52.430;16.936;2023-10-31T03:53:15;10.80;;;6.50;;
53903;SDS011;39812;52.430;16.936;2023-10-31T03:55:41;12.10;;;6.35;;
53903;SDS011;39812;52.430;16.936;2023-10-31T03:58:07;17.20;;;6.95;;
53903;SDS011;39812;52.430;16.936;2023-10-31T04:00:33;14.05;;;6.95;;
53903;SDS011;39812;52.430;16.936;2023-10-31T04:02:58;11.32;;;6.15;;
53903;SDS011;39812;52.430;16.936;2023-10-31T04:05:24;14.45;;;6.75;;
53903;SDS011;39812;52.430;16.936;2023-10-31T04:07:50;11.82;;;6.25;;
53903;SDS011;39812;52.430;16.936;2023-10-31T04:10:16;11.82;;;6.60;;
53903;SDS011;39812;52.430;16.936;2023-10-31T04:12:43;11.40;;;6.82;;
53903;SDS011;39812;52.430;16.936;2023-10-31T04:15:08;13.18;;;6.55;;
53903;SDS011;39812;52.430;16.936;2023-10-31T04:17:34;10.85;;;6.03;;
53903;SDS011;39812;52.430;16.936;2023-10-31T04:20:00;13.73;;;6.82;;
53903;SDS011;39812;52.430;16.936;2023-10-31T04:22:26;11.68;;;6.35;;
53903;SDS011;39812;52.430;16.936;2023-10-31T04:24:55;9.50;;;5.93;;
53903;SDS011;39812;52.430;16.936;2023-10-31T04:27:21;12.20;;;6.10;;
53903;SDS011;39812;52.430;16.936;2023-10-31T04:29:46;10.07;;;6.43;;
53903;SDS011;39812;52.430;16.936;2023-10-31T04:32:12;13.38;;;6.45;;
53903;SDS011;39812;52.430;16.936;2023-10-31T04:34:38;15.35;;;6.75;;
53903;SDS011;39812;52.430;16.936;2023-10-31T04:37:04;12.57;;;7.10;;
53903;SDS011;39812;52.430;16.936;2023-10-31T04:39:30;10.05;;;6.65;;
53903;SDS011;39812;52.430;16.936;2023-10-31T04:41:56;14.82;;;7.53;;
53903;SDS011;39812;52.430;16.936;2023-10-31T04:44:21;12.57;;;7.18;;
53903;SDS011;39812;52.430;16.936;2023-10-31T04:46:47;12.98;;;7.20;;
53903;SDS011;39812;52.430;16.936;2023-10-31T04:49:13;16.00;;;7.70;;
53903;SDS011;39812;52.430;16.936;2023-10-31T04:51:38;12.98;;;7.10;;
53903;SDS011;39812;52.430;16.936;2023-10-31T04:54:04;10.75;;;6.72;;
53903;SDS011;39812;52.430;16.936;2023-10-31T04:56:30;15.25;;;6.85;;
53903;SDS011;39812;52.430;16.936;2023-10-31T04:58:56;12.85;;;7.50;;
53903;SDS011;39812;52.430;16.936;2023-10-31T05:01:21;10.00;;;7.03;;
53903;SDS011;39812;52.430;16.936;2023-10-31T05:03:47;16.92;;;6.35;;
53903;SDS011;39812;52.430;16.936;2023-10-31T05:06:18;13.02;;;6.93;;
53903;SDS011;39812;52.430;16.936;2023-10-31T05:08:48;12.75;;;7.00;;
53903;SDS011;39812;52.430;16.936;2023-10-31T05:11:17;12.27;;;7.53;;
53903;SDS011;39812;52.430;16.936;2023-10-31T05:13:43;11.23;;;7.03;;
53903;SDS011;39812;52.430;16.936;2023-10-31T05:16:09;14.40;;;6.95;;
53903;SDS011;39812;52.430;16.936;2023-10-31T05:18:37;12.93;;;6.53;;
53903;SDS011;39812;52.430;16.936;2023-10-31T05:21:03;12.95;;;7.03;;
53903;SDS011;39812;52.430;16.936;2023-10-31T05:23:29;11.15;;;6.97;;
53903;SDS011;39812;52.430;16.936;2023-10-31T05:25:55;13.90;;;7.63;;
53903;SDS011;39812;52.430;16.936;2023-10-31T05:28:21;11.65;;;7.43;;
53903;SDS011;39812;52.430;16.936;2023-10-31T05:30:46;12.75;;;7.57;;
53903;SDS011;39812;52.430;16.936;2023-10-31T05:33:14;11.57;;;6.20;;
53903;SDS011;39812;52.430;16.936;2023-10-31T05:35:40;13.77;;;6.85;;
53903;SDS011;39812;52.430;16.936;2023-10-31T05:38:06;16.70;;;7.18;;
53903;SDS011;39812;52.430;16.936;2023-10-31T05:40:32;12.77;;;6.72;;
53903;SDS011;39812;52.430;16.936;2023-10-31T05:43:00;11.43;;;7.22;;
53903;SDS011;39812;52.430;16.936;2023-10-31T05:45:26;11.18;;;6.72;;
53903;SDS011;39812;52.430;16.936;2023-10-31T05:47:52;10.35;;;6.80;;
53903;SDS011;39812;52.430;16.936;2023-10-31T05:50:18;13.57;;;7.28;;
53903;SDS011;39812;52.430;16.936;2023-10-31T05:52:43;12.45;;;6.95;;
53903;SDS011;39812;52.430;16.936;2023-10-31T05:55:09;13.35;;;6.85;;
53903;SDS011;39812;52.430;16.936;2023-10-31T05:57:35;18.88;;;7.50;;
53903;SDS011;39812;52.430;16.936;2023-10-31T06:00:01;13.73;;;6.82;;
53903;SDS011;39812;52.430;16.936;2023-10-31T06:02:27;13.60;;;7.85;;
53903;SDS011;39812;52.430;16.936;2023-10-31T06:04:54;13.35;;;7.07;;
53903;SDS011;39812;52.430;16.936;2023-10-31T06:07:20;13.35;;;7.15;;
53903;SDS011;39812;52.430;16.936;2023-10-31T06:09:46;13.35;;;7.85;;
53903;SDS011;39812;52.430;16.936;2023-10-31T06:12:12;15.65;;;8.27;;
53903;SDS011;39812;52.430;16.936;2023-10-31T06:14:37;15.23;;;8.40;;
53903;SDS011;39812;52.430;16.936;2023-10-31T06:17:03;13.07;;;8.10;;
53903;SDS011;39812;52.430;16.936;2023-10-31T06:19:29;14.88;;;7.88;;
53903;SDS011;39812;52.430;16.936;2023-10-31T06:21:55;12.35;;;8.45;;
53903;SDS011;39812;52.430;16.936;2023-10-31T06:24:20;14.02;;;8.63;;
53903;SDS011;39812;52.430;16.936;2023-10-31T06:26:46;17.33;;;8.10;;
53903;SDS011;39812;52.430;16.936;2023-10-31T06:29:12;15.68;;;7.68;;
53903;SDS011;39812;52.430;16.936;2023-10-31T06:31:38;11.38;;;7.60;;
53903;SDS011;39812;52.430;16.936;2023-10-31T06:34:04;14.02;;;8.18;;
53903;SDS011;39812;52.430;16.936;2023-10-31T06:36:29;12.20;;;7.97;;
53903;SDS011;39812;52.430;16.936;2023-10-31T06:38:55;12.75;;;8.40;;
53903;SDS011;39812;52.430;16.936;2023-10-31T06:41:21;12.75;;;8.50;;
53903;SDS011;39812;52.430;16.936;2023-10-31T06:43:47;15.57;;;9.10;;
53903;SDS011;39812;52.430;16.936;2023-10-31T06:46:13;15.88;;;9.15;;
53903;SDS011;39812;52.430;16.936;2023-10-31T06:48:40;16.67;;;9.45;;
53903;SDS011;39812;52.430;16.936;2023-10-31T06:51:05;18.00;;;10.15;;
53903;SDS011;39812;52.430;16.936;2023-10-31T06:53:31;17.92;;;10.02;;
53903;SDS011;39812;52.430;16.936;2023-10-31T06:55:57;18.33;;;10.23;;
53903;SDS011;39812;52.430;16.936;2023-10-31T06:58:23;21.52;;;11.02;;
53903;SDS011;39812;52.430;16.936;2023-10-31T07:00:49;18.92;;;10.90;;
53903;SDS011;39812;52.430;16.936;2023-10-31T07:03:14;19.77;;;10.73;;
53903;SDS011;39812;52.430;16.936;2023-10-31T07:05:41;19.25;;;13.20;;
53903;SDS011;39812;52.430;16.936;2023-10-31T07:08:07;23.73;;;13.80;;
53903;SDS011;39812;52.430;16.936;2023-10-31T07:10:33;22.25;;;12.70;;
53903;SDS011;39812;52.430;16.936;2023-10-31T07:12:59;19.02;;;12.30;;
53903;SDS011;39812;52.430;16.936;2023-10-31T07:15:25;23.15;;;13.30;;
53903;SDS011;39812;52.430;16.936;2023-10-31T07:17:51;20.10;;;13.13;;
53903;SDS011;39812;52.430;16.936;2023-10-31T07:20:16;26.98;;;15.30;;
53903;SDS011;39812;52.430;16.936;2023-10-31T07:22:42;22.75;;;14.23;;
53903;SDS011;39812;52.430;16.936;2023-10-31T07:25:08;22.40;;;13.90;;
53903;SDS011;39812;52.430;16.936;2023-10-31T07:27:34;26.00;;;14.73;;
53903;SDS011;39812;52.430;16.936;2023-10-31T07:30:01;23.65;;;13.55;;
53903;SDS011;39812;52.430;16.936;2023-10-31T07:32:27;20.63;;;13.07;;
53903;SDS011;39812;52.430;16.936;2023-10-31T07:34:53;22.65;;;13.88;;
53903;SDS011;39812;52.430;16.936;2023-10-31T07:37:19;26.05;;;14.43;;
53903;SDS011;39812;52.430;16.936;2023-10-31T07:39:45;21.63;;;12.75;;
53903;SDS011;39812;52.430;16.936;2023-10-31T07:42:11;22.58;;;14.25;;
53903;SDS011;39812;52.430;16.936;2023-10-31T07:44:37;24.42;;;14.45;;
53903;SDS011;39812;52.430;16.936;2023-10-31T07:47:03;25.55;;;14.30;;
53903;SDS011;39812;52.430;16.936;2023-10-31T07:49:29;24.63;;;14.40;;
53903;SDS011;39812;52.430;16.936;2023-10-31T07:51:54;19.65;;;12.18;;
53903;SDS011;39812;52.430;16.936;2023-10-31T07:54:20;15.85;;;10.93;;
53903;SDS011;39812;52.430;16.936;2023-10-31T07:56:46;17.67;;;11.60;;
53903;SDS011;39812;52.430;16.936;2023-10-31T07:59:11;20.58;;;12.60;;
53903;SDS011;39812;52.430;16.936;2023-10-31T08:01:37;18.17;;;11.10;;
53903;SDS011;39812;52.430;16.936;2023-10-31T08:04:03;16.73;;;10.63;;
53903;SDS011;39812;52.430;16.936;2023-10-31T08:06:28;19.23;;;11.73;;
53903;SDS011;39812;52.430;16.936;2023-10-31T08:08:54;16.13;;;11.07;;
53903;SDS011;39812;52.430;16.936;2023-10-31T08:11:20;24.52;;;11.68;;
53903;SDS011;39812;52.430;16.936;2023-10-31T08:13:46;19.85;;;12.10;;
53903;SDS011;39812;52.430;16.936;2023-10-31T08:16:16;17.42;;;11.80;;
53903;SDS011;39812;52.430;16.936;2023-10-31T08:18:46;19.02;;;11.95;;
53903;SDS011;39812;52.430;16.936;2023-10-31T08:21:12;17.83;;;12.13;;
53903;SDS011;39812;52.430;16.936;2023-10-31T08:23:37;18.52;;;12.38;;
53903;SDS011;39812;52.430;16.936;2023-10-31T08:26:03;17.83;;;12.50;;
53903;SDS011;39812;52.430;16.936;2023-10-31T08:28:29;17.70;;;12.00;;
53903;SDS011;39812;52.430;16.936;2023-10-31T08:30:55;15.85;;;11.20;;
53903;SDS011;39812;52.430;16.936;2023-10-31T08:33:22;15.70;;;11.82;;
53903;SDS011;39812;52.430;16.936;2023-10-31T08:35:48;16.25;;;12.13;;
53903;SDS011;39812;52.430;16.936;2023-10-31T08:38:13;16.75;;;11.25;;
53903;SDS011;39812;52.430;16.936;2023-10-31T08:40:39;15.55;;;11.60;;
53903;SDS011;39812;52.430;16.936;2023-10-31T08:43:05;12.95;;;9.80;;
53903;SDS011;39812;52.430;16.936;2023-10-31T08:45:31;12.40;;;9.70;;
53903;SDS011;39812;52.430;16.936;2023-10-31T08:47:58;11.85;;;9.40;;
53903;SDS011;39812;52.430;16.936;2023-10-31T08:50:24;12.45;;;9.02;;
53903;SDS011;39812;52.430;16.936;2023-10-31T08:52:49;11.75;;;9.25;;
53903;SDS011;39812;52.430;16.936;2023-10-31T08:55:15;15.05;;;9.15;;
53903;SDS011;39812;52.430;16.936;2023-10-31T08:57:41;11.63;;;8.77;;
53903;SDS011;39812;52.430;16.936;2023-10-31T09:00:07;11.55;;;8.32;;
53903;SDS011;39812;52.430;16.936;2023-10-31T09:02:33;10.77;;;8.40;;
53903;SDS011;39812;52.430;16.936;2023-10-31T09:04:59;11.70;;;7.65;;
53903;SDS011;39812;52.430;16.936;2023-10-31T09:07:24;9.93;;;7.80;;
53903;SDS011;39812;52.430;16.936;2023-10-31T09:09:50;11.07;;;6.68;;
53903;SDS011;39812;52.430;16.936;2023-10-31T09:12:15;9.45;;;6.55;;
53903;SDS011;39812;52.430;16.936;2023-10-31T09:14:41;9.13;;;6.18;;
53903;SDS011;39812;52.430;16.936;2023-10-31T09:17:07;8.25;;;5.68;;
53903;SDS011;39812;52.430;16.936;2023-10-31T09:19:33;6.20;;;4.97;;
53903;SDS011;39812;52.430;16.936;2023-10-31T09:21:58;6.18;;;4.63;;
53903;SDS011;39812;52.430;16.936;2023-10-31T09:24:24;6.43;;;4.68;;
53903;SDS011;39812;52.430;16.936;2023-10-31T09:26:49;4.88;;;4.07;;
53903;SDS011;39812;52.430;16.936;2023-10-31T09:29:15;5.70;;;4.15;;
53903;SDS011;39812;52.430;16.936;2023-10-31T09:31:41;5.38;;;4.03;;
53903;SDS011;39812;52.430;16.936;2023-10-31T09:34:07;4.18;;;3.47;;
53903;SDS011;39812;52.430;16.936;2023-10-31T09:36:33;6.80;;;3.28;;
53903;SDS011;39812;52.430;16.936;2023-10-31T09:39:01;4.30;;;2.97;;
53903;SDS011;39812;52.430;16.936;2023-10-31T09:41:28;3.42;;;2.58;;
53903;SDS011;39812;52.430;16.936;2023-10-31T09:43:54;4.00;;;3.08;;
53903;SDS011;39812;52.430;16.936;2023-10-31T09:46:20;4.25;;;2.95;;
53903;SDS011;39812;52.430;16.936;2023-10-31T09:48:47;3.33;;;2.67;;
53903;SDS011;39812;52.430;16.936;2023-10-31T09:51:14;3.63;;;2.60;;
53903;SDS011;39812;52.430;16.936;2023-10-31T09:53:39;4.35;;;2.55;;
53903;SDS011;39812;52.430;16.936;2023-10-31T09:56:09;5.97;;;2.70;;
53903;SDS011;39812;52.430;16.936;2023-10-31T09:58:34;2.70;;;2.28;;
53903;SDS011;39812;52.430;16.936;2023-10-31T10:01:00;4.28;;;2.53;;
53903;SDS011;39812;52.430;16.936;2023-10-31T10:03:26;3.90;;;2.45;;
53903;SDS011;39812;52.430;16.936;2023-10-31T10:05:52;3.28;;;2.53;;
53903;SDS011;39812;52.430;16.936;2023-10-31T10:08:21;4.15;;;2.65;;
53903;SDS011;39812;52.430;16.936;2023-10-31T10:10:47;3.33;;;2.45;;
53903;SDS011;39812;52.430;16.936;2023-10-31T10:13:17;4.10;;;2.78;;
53903;SDS011;39812;52.430;16.936;2023-10-31T10:15:43;4.28;;;2.80;;
53903;SDS011;39812;52.430;16.936;2023-10-31T10:18:26;5.60;;;2.80;;
53903;SDS011;39812;52.430;16.936;2023-10-31T10:20:57;5.07;;;3.13;;
53903;SDS011;39812;52.430;16.936;2023-10-31T10:23:27;4.35;;;3.15;;
53903;SDS011;39812;52.430;16.936;2023-10-31T10:25:54;5.20;;;3.20;;
53903;SDS011;39812;52.430;16.936;2023-10-31T10:28:21;4.97;;;2.95;;
53903;SDS011;39812;52.430;16.936;2023-10-31T10:30:51;8.50;;;2.90;;
53903;SDS011;39812;52.430;16.936;2023-10-31T10:33:18;3.55;;;2.65;;
53903;SDS011;39812;52.430;16.936;2023-10-31T10:35:45;3.35;;;2.53;;
53903;SDS011;39812;52.430;16.936;2023-10-31T10:38:17;4.10;;;2.45;;
53903;SDS011;39812;52.430;16.936;2023-10-31T10:40:45;3.08;;;2.78;;
53903;SDS011;39812;52.430;16.936;2023-10-31T10:43:34;5.75;;;4.13;;
53903;SDS011;39812;52.430;16.936;2023-10-31T10:46:01;4.30;;;3.20;;
53903;SDS011;39812;52.430;16.936;2023-10-31T10:48:29;4.47;;;3.28;;
53903;SDS011;39812;52.430;16.936;2023-10-31T10:53:48;4.93;;;3.33;;
53903;SDS011;39812;52.430;16.936;2023-10-31T10:56:24;5.07;;;4.00;;
53903;SDS011;39812;52.430;16.936;2023-10-31T10:59:03;5.72;;;3.83;;
53903;SDS011;39812;52.430;16.936;2023-10-31T11:01:39;4.65;;;4.10;;
53903;SDS011;39812;52.430;16.936;2023-10-31T11:04:06;4.97;;;4.38;;
53903;SDS011;39812;52.430;16.936;2023-10-31T11:06:33;5.63;;;3.55;;
53903;SDS011;39812;52.430;16.936;2023-10-31T11:09:00;5.70;;;3.75;;
53903;SDS011;39812;52.430;16.936;2023-10-31T11:11:26;4.43;;;3.55;;
53903;SDS011;39812;52.430;16.936;2023-10-31T11:13:52;4.30;;;3.40;;
53903;SDS011;39812;52.430;16.936;2023-10-31T11:17:06;4.50;;;4.05;;
53903;SDS011;39812;52.430;16.936;2023-10-31T11:19:14;7.65;;;4.53;;
53903;SDS011;39812;52.430;16.936;2023-10-31T11:21:53;6.00;;;4.22;;
53903;SDS011;39812;52.430;16.936;2023-10-31T11:24:47;7.15;;;3.75;;
53903;SDS011;39812;52.430;16.936;2023-10-31T11:27:13;5.00;;;3.70;;
53903;SDS011;39812;52.430;16.936;2023-10-31T11:29:39;5.00;;;3.15;;
53903;SDS011;39812;52.430;16.936;2023-10-31T11:32:09;3.83;;;2.75;;
53903;SDS011;39812;52.430;16.936;2023-10-31T11:34:36;4.03;;;2.50;;
53903;SDS011;39812;52.430;16.936;2023-10-31T11:37:23;2.70;;;2.25;;
53903;SDS011;39812;52.430;16.936;2023-10-31T11:42:51;2.53;;;2.10;;
53903;SDS011;39812;52.430;16.936;2023-10-31T11:45:35;2.50;;;1.60;;
53903;SDS011;39812;52.430;16.936;2023-10-31T11:48:05;2.17;;;1.30;;
53903;SDS011;39812;52.430;16.936;2023-10-31T11:50:31;2.05;;;1.10;;
53903;SDS011;39812;52.430;16.936;2023-10-31T11:52:58;1.35;;;0.80;;
53903;SDS011;39812;52.430;16.936;2023-10-31T11:55:24;1.83;;;1.02;;
53903;SDS011;39812;52.430;16.936;2023-10-31T11:57:50;2.22;;;0.60;;
53903;SDS011;39812;52.430;16.936;2023-10-31T12:00:21;5.38;;;0.80;;
53903;SDS011;39812;52.430;16.936;2023-10-31T12:03:06;1.25;;;0.70;;
53903;SDS011;39812;52.430;16.936;2023-10-31T12:05:32;2.72;;;0.82;;
53903;SDS011;39812;52.430;16.936;2023-10-31T12:07:58;0.90;;;0.70;;
53903;SDS011;39812;52.430;16.936;2023-10-31T12:10:24;3.05;;;0.80;;
53903;SDS011;39812;52.430;16.936;2023-10-31T12:12:54;0.80;;;0.60;;
53903;SDS011;39812;52.430;16.936;2023-10-31T12:15:21;0.70;;;0.50;;
53903;SDS011;39812;52.430;16.936;2023-10-31T12:17:47;0.60;;;0.57;;
53903;SDS011;39812;52.430;16.936;2023-10-31T12:20:14;1.30;;;0.77;;
53903;SDS011;39812;52.430;16.936;2023-10-31T12:22:41;1.38;;;0.90;;
53903;SDS011;39812;52.430;16.936;2023-10-31T12:25:07;3.00;;;0.80;;
53903;SDS011;39812;52.430;16.936;2023-10-31T12:27:50;0.85;;;0.70;;
53903;SDS011;39812;52.430;16.936;2023-10-31T12:30:17;3.90;;;1.00;;
53903;SDS011;39812;52.430;16.936;2023-10-31T12:32:44;1.50;;;0.77;;
53903;SDS011;39812;52.430;16.936;2023-10-31T12:35:11;2.08;;;0.80;;
53903;SDS011;39812;52.430;16.936;2023-10-31T12:37:45;1.67;;;1.10;;
53903;SDS011;39812;52.430;16.936;2023-10-31T12:40:17;1.52;;;0.80;;
53903;SDS011;39812;52.430;16.936;2023-10-31T12:42:44;2.95;;;0.95;;
53903;SDS011;39812;52.430;16.936;2023-10-31T12:45:12;1.13;;;0.75;;
53903;SDS011;39812;52.430;16.936;2023-10-31T12:47:38;1.13;;;0.98;;
53903;SDS011;39812;52.430;16.936;2023-10-31T12:50:06;1.30;;;0.80;;
53903;SDS011;39812;52.430;16.936;2023-10-31T12:52:50;1.33;;;0.98;;
53903;SDS011;39812;52.430;16.936;2023-10-31T12:55:27;1.02;;;0.80;;
53903;SDS011;39812;52.430;16.936;2023-10-31T12:57:56;1.67;;;0.80;;
53903;SDS011;39812;52.430;16.936;2023-10-31T13:00:25;1.33;;;0.77;;
53903;SDS011;39812;52.430;16.936;2023-10-31T13:03:00;1.63;;;0.70;;
53903;SDS011;39812;52.430;16.936;2023-10-31T13:05:33;2.10;;;0.95;;
53903;SDS011;39812;52.430;16.936;2023-10-31T13:08:00;1.75;;;1.17;;
53903;SDS011;39812;52.430;16.936;2023-10-31T13:10:29;1.85;;;1.23;;
53903;SDS011;39812;52.430;16.936;2023-10-31T13:12:57;2.45;;;1.20;;
53903;SDS011;39812;52.430;16.936;2023-10-31T13:15:23;2.10;;;1.20;;
53903;SDS011;39812;52.430;16.936;2023-10-31T13:17:50;3.95;;;1.10;;
53903;SDS011;39812;52.430;16.936;2023-10-31T13:20:17;2.00;;;1.13;;
53903;SDS011;39812;52.430;16.936;2023-10-31T13:22:46;5.82;;;1.40;;
53903;SDS011;39812;52.430;16.936;2023-10-31T13:25:13;2.35;;;1.42;;
53903;SDS011;39812;52.430;16.936;2023-10-31T13:27:40;1.38;;;1.00;;
53903;SDS011;39812;52.430;16.936;2023-10-31T13:30:08;2.35;;;1.27;;
53903;SDS011;39812;52.430;16.936;2023-10-31T13:32:38;2.83;;;1.30;;
53903;SDS011;39812;52.430;16.936;2023-10-31T13:35:05;2.33;;;1.20;;
53903;SDS011;39812;52.430;16.936;2023-10-31T13:37:31;1.23;;;0.80;;
53903;SDS011;39812;52.430;16.936;2023-10-31T13:39:56;2.47;;;1.20;;
53903;SDS011;39812;52.430;16.936;2023-10-31T13:42:22;2.80;;;1.17;;
53903;SDS011;39812;52.430;16.936;2023-10-31T13:44:48;2.40;;;0.90;;
53903;SDS011;39812;52.430;16.936;2023-10-31T13:47:14;1.65;;;1.00;;
53903;SDS011;39812;52.430;16.936;2023-10-31T13:49:40;2.20;;;1.10;;
53903;SDS011;39812;52.430;16.936;2023-10-31T13:52:05;7.50;;;1.80;;
53903;SDS011;39812;52.430;16.936;2023-10-31T13:54:34;1.85;;;1.15;;
53903;SDS011;39812;52.430;16.936;2023-10-31T13:57:00;1.75;;;0.90;;
53903;SDS011;39812;52.430;16.936;2023-10-31T13:59:26;1.60;;;0.75;;
53903;SDS011;39812;52.430;16.936;2023-10-31T14:01:52;3.22;;;1.15;;
53903;SDS011;39812;52.430;16.936;2023-10-31T14:04:18;0.82;;;0.73;;
53903;SDS011;39812;52.430;16.936;2023-10-31T14:06:44;2.33;;;1.00;;
53903;SDS011;39812;52.430;16.936;2023-10-31T14:09:10;1.67;;;1.10;;
53903;SDS011;39812;52.430;16.936;2023-10-31T14:11:37;1.65;;;1.00;;
53903;SDS011;39812;52.430;16.936;2023-10-31T14:14:04;2.00;;;1.10;;
53903;SDS011;39812;52.430;16.936;2023-10-31T14:16:35;1.77;;;0.90;;
53903;SDS011;39812;52.430;16.936;2023-10-31T14:19:02;1.67;;;0.80;;
53903;SDS011;39812;52.430;16.936;2023-10-31T14:21:28;3.38;;;1.13;;
53903;SDS011;39812;52.430;16.936;2023-10-31T14:23:54;3.47;;;1.00;;
53903;SDS011;39812;52.430;16.936;2023-10-31T14:26:20;4.30;;;1.10;;
53903;SDS011;39812;52.430;16.936;2023-10-31T14:28:46;1.98;;;0.70;;